sensor_id;sensor_type;location;lat;lon;timestamp;pressure;altitude;pressure_sealevel;temperature;humidity
49723;BME280;43484;43.608;1.458;2022-11-24T00:01:07;99763.25;;;11.19;100.00
49723;BME280;43484;43.608;1.458;2022-11-24T00:03:34;99763.34;;;11.24;100.00
49723;BME280;43484;43.608;1.458;2022-11-24T00:06:06;99773.19;;;11.09;100.00
49723;BME280;43484;43.608;1.458;2022-11-24T00:08:34;99772.53;;;11.16;100.00
49723;BME280;43484;43.608;1.458;2022-11-24T00:11:06;99771.41;;;11.05;100.00
49723;BME280;43484;43.608;1.458;2022-11-24T00:13:33;99766.84;;;10.93;100.00
49723;BME280;43484;43.608;1.458;2022-11-24T00:16:09;99770.09;;;10.88;100.00
49723;BME280;43484;43.608;1.458;2022-11-24T00:18:41;99757.22;;;10.86;100.00
49723;BME280;43484;43.608;1.458;2022-11-24T00:21:08;99767.22;;;10.77;100.00
49723;BME280;43484;43.608;1.458;2022-11-24T00:23:35;99752.63;;;10.73;100.00
49723;BME280;43484;43.608;1.458;2022-11-24T00:26:06;99747.75;;;10.84;100.00
49723;BME280;43484;43.608;1.458;2022-11-24T00:28:34;99745.09;;;10.79;100.00
49723;BME280;43484;43.608;1.458;2022-11-24T00:31:01;99754.69;;;10.86;100.00
49723;BME280;43484;43.608;1.458;2022-11-24T00:33:28;99751.84;;;10.77;100.00
49723;BME280;43484;43.608;1.458;2022-11-24T00:35:55;99734.56;;;10.70;100.00
49723;BME280;43484;43.608;1.458;2022-11-24T00:38:23;99720.91;;;10.70;100.00
49723;BME280;43484;43.608;1.458;2022-11-24T00:40:50;99728.25;;;10.58;100.00
49723;BME280;43484;43.608;1.458;2022-11-24T00:43:18;99724.47;;;10.45;100.00
49723;BME280;43484;43.608;1.458;2022-11-24T00:45:44;99714.22;;;10.45;100.00
49723;BME280;43484;43.608;1.458;2022-11-24T00:48:11;99706.59;;;10.47;100.00
49723;BME280;43484;43.608;1.458;2022-11-24T00:50:37;99703.00;;;10.40;100.00
49723;BME280;43484;43.608;1.458;2022-11-24T00:53:04;99694.31;;;10.35;100.00
49723;BME280;43484;43.608;1.458;2022-11-24T00:55:31;99682.63;;;10.43;100.00
49723;BME280;43484;43.608;1.458;2022-11-24T00:57:57;99685.94;;;10.41;100.00
49723;BME280;43484;43.608;1.458;2022-11-24T01:00:24;99685.88;;;10.38;100.00
49723;BME280;43484;43.608;1.458;2022-11-24T01:02:51;99692.03;;;10.44;100.00
49723;BME280;43484;43.608;1.458;2022-11-24T01:05:18;99692.06;;;10.46;100.00
49723;BME280;43484;43.608;1.458;2022-11-24T01:07:45;99691.16;;;10.44;100.00
49723;BME280;43484;43.608;1.458;2022-11-24T01:10:12;99683.44;;;10.42;100.00
49723;BME280;43484;43.608;1.458;2022-11-24T01:12:38;99692.78;;;10.42;100.00
49723;BME280;43484;43.608;1.458;2022-11-24T01:15:05;99691.81;;;10.37;100.00
49723;BME280;43484;43.608;1.458;2022-11-24T01:17:32;99691.72;;;10.34;100.00
49723;BME280;43484;43.608;1.458;2022-11-24T01:19:58;99690.03;;;10.34;100.00
49723;BME280;43484;43.608;1.458;2022-11-24T01:22:25;99700.06;;;10.27;100.00
49723;BME280;43484;43.608;1.458;2022-11-24T01:24:52;99685.59;;;10.29;100.00
49723;BME280;43484;43.608;1.458;2022-11-24T01:27:19;99688.16;;;10.29;100.00
49723;BME280;43484;43.608;1.458;2022-11-24T01:29:45;99704.03;;;10.47;100.00
49723;BME280;43484;43.608;1.458;2022-11-24T01:32:12;99709.78;;;10.38;100.00
49723;BME280;43484;43.608;1.458;2022-11-24T01:34:38;99714.03;;;10.38;100.00
49723;BME280;43484;43.608;1.458;2022-11-24T01:37:05;99729.56;;;10.44;100.00
49723;BME280;43484;43.608;1.458;2022-11-24T01:39:31;99746.81;;;10.49;100.00
49723;BME280;43484;43.608;1.458;2022-11-24T01:42:01;99744.28;;;10.51;100.00
49723;BME280;43484;43.608;1.458;2022-11-24T01:44:29;99740.84;;;10.50;100.00
49723;BME280;43484;43.608;1.458;2022-11-24T01:46:59;99752.75;;;10.48;100.00
49723;BME280;43484;43.608;1.458;2022-11-24T01:49:40;99754.31;;;10.43;100.00
49723;BME280;43484;43.608;1.458;2022-11-24T01:52:14;99769.78;;;10.46;100.00
49723;BME280;43484;43.608;1.458;2022-11-24T01:54:59;99760.59;;;10.54;100.00
49723;BME280;43484;43.608;1.458;2022-11-24T01:57:31;99774.81;;;10.43;100.00
49723;BME280;43484;43.608;1.458;2022-11-24T02:00:03;99782.00;;;10.56;100.00
49723;BME280;43484;43.608;1.458;2022-11-24T02:02:30;99791.22;;;10.50;100.00
49723;BME280;43484;43.608;1.458;2022-11-24T02:05:01;99790.94;;;10.41;100.00
49723;BME280;43484;43.608;1.458;2022-11-24T02:07:29;99785.78;;;10.39;100.00
49723;BME280;43484;43.608;1.458;2022-11-24T02:10:02;99780.56;;;10.36;100.00
49723;BME280;43484;43.608;1.458;2022-11-24T02:12:30;99787.22;;;10.30;100.00
49723;BME280;43484;43.608;1.458;2022-11-24T02:14:58;99790.06;;;10.40;100.00
49723;BME280;43484;43.608;1.458;2022-11-24T02:17:24;99795.72;;;10.30;100.00
49723;BME280;43484;43.608;1.458;2022-11-24T02:19:56;99789.97;;;10.37;100.00
49723;BME280;43484;43.608;1.458;2022-11-24T02:28:07;99765.66;;;10.23;100.00
49723;BME280;43484;43.608;1.458;2022-11-24T02:30:35;99765.66;;;10.23;100.00
49723;BME280;43484;43.608;1.458;2022-11-24T02:33:02;99769.72;;;10.17;100.00
49723;BME280;43484;43.608;1.458;2022-11-24T02:35:30;99771.69;;;10.25;100.00
49723;BME280;43484;43.608;1.458;2022-11-24T02:37:56;99791.13;;;10.19;100.00
49723;BME280;43484;43.608;1.458;2022-11-24T02:40:26;99810.59;;;10.13;100.00
49723;BME280;43484;43.608;1.458;2022-11-24T02:42:56;99817.34;;;10.11;100.00
49723;BME280;43484;43.608;1.458;2022-11-24T02:45:24;99812.28;;;10.13;100.00
49723;BME280;43484;43.608;1.458;2022-11-24T02:47:51;99802.19;;;10.18;100.00
49723;BME280;43484;43.608;1.458;2022-11-24T02:50:18;99804.72;;;10.16;100.00
49723;BME280;43484;43.608;1.458;2022-11-24T02:52:45;99801.91;;;10.08;100.00
49723;BME280;43484;43.608;1.458;2022-11-24T02:55:12;99802.50;;;10.01;100.00
49723;BME280;43484;43.608;1.458;2022-11-24T02:57:38;99807.47;;;9.97;100.00
49723;BME280;43484;43.608;1.458;2022-11-24T03:00:05;99809.03;;;9.92;100.00
49723;BME280;43484;43.608;1.458;2022-11-24T03:02:32;99796.31;;;9.95;100.00
49723;BME280;43484;43.608;1.458;2022-11-24T03:04:59;99801.31;;;9.90;100.00
49723;BME280;43484;43.608;1.458;2022-11-24T03:07:25;99805.47;;;9.87;100.00
49723;BME280;43484;43.608;1.458;2022-11-24T03:09:52;99805.50;;;9.88;100.00
49723;BME280;43484;43.608;1.458;2022-11-24T03:12:18;99811.72;;;9.96;100.00
49723;BME280;43484;43.608;1.458;2022-11-24T03:14:45;99813.47;;;9.97;100.00
49723;BME280;43484;43.608;1.458;2022-11-24T03:17:12;99815.47;;;10.06;100.00
49723;BME280;43484;43.608;1.458;2022-11-24T03:19:38;99818.88;;;10.06;100.00
49723;BME280;43484;43.608;1.458;2022-11-24T03:22:05;99835.44;;;10.16;100.00
49723;BME280;43484;43.608;1.458;2022-11-24T03:24:31;99845.53;;;10.13;100.00
49723;BME280;43484;43.608;1.458;2022-11-24T03:26:58;99857.59;;;10.16;100.00
49723;BME280;43484;43.608;1.458;2022-11-24T03:29:25;99853.88;;;10.07;100.00
49723;BME280;43484;43.608;1.458;2022-11-24T03:31:51;99858.56;;;9.94;100.00
49723;BME280;43484;43.608;1.458;2022-11-24T03:34:18;99860.22;;;9.92;100.00
49723;BME280;43484;43.608;1.458;2022-11-24T03:36:44;99870.41;;;9.90;100.00
49723;BME280;43484;43.608;1.458;2022-11-24T03:39:11;99863.06;;;10.01;100.00
49723;BME280;43484;43.608;1.458;2022-11-24T03:41:37;99867.84;;;9.90;100.00
49723;BME280;43484;43.608;1.458;2022-11-24T03:44:04;99878.22;;;9.95;100.00
49723;BME280;43484;43.608;1.458;2022-11-24T03:46:31;99880.06;;;9.99;100.00
49723;BME280;43484;43.608;1.458;2022-11-24T03:48:57;99881.50;;;9.91;100.00
49723;BME280;43484;43.608;1.458;2022-11-24T03:51:24;99880.72;;;9.93;100.00
49723;BME280;43484;43.608;1.458;2022-11-24T03:53:50;99895.41;;;9.99;100.00
49723;BME280;43484;43.608;1.458;2022-11-24T03:56:17;99884.03;;;9.89;100.00
49723;BME280;43484;43.608;1.458;2022-11-24T03:58:44;99886.16;;;9.77;100.00
49723;BME280;43484;43.608;1.458;2022-11-24T04:01:10;99877.53;;;9.74;100.00
49723;BME280;43484;43.608;1.458;2022-11-24T04:03:37;99875.31;;;9.84;100.00
49723;BME280;43484;43.608;1.458;2022-11-24T04:06:03;99875.41;;;9.87;100.00
49723;BME280;43484;43.608;1.458;2022-11-24T04:08:30;99865.19;;;9.87;100.00
49723;BME280;43484;43.608;1.458;2022-11-24T04:10:56;99861.19;;;9.95;100.00
49723;BME280;43484;43.608;1.458;2022-11-24T04:13:24;99872.78;;;10.09;100.00
49723;BME280;43484;43.608;1.458;2022-11-24T04:15:51;99881.97;;;10.04;100.00
49723;BME280;43484;43.608;1.458;2022-11-24T04:18:18;99889.84;;;10.10;100.00
49723;BME280;43484;43.608;1.458;2022-11-24T04:20:47;99897.53;;;10.10;100.00
49723;BME280;43484;43.608;1.458;2022-11-24T04:23:15;99899.38;;;9.89;100.00
49723;BME280;43484;43.608;1.458;2022-11-24T04:25:41;99904.53;;;9.91;100.00
49723;BME280;43484;43.608;1.458;2022-11-24T04:28:09;99901.09;;;9.90;100.00
49723;BME280;43484;43.608;1.458;2022-11-24T04:30:35;99893.38;;;9.89;100.00
49723;BME280;43484;43.608;1.458;2022-11-24T04:33:03;99894.25;;;9.89;100.00
49723;BME280;43484;43.608;1.458;2022-11-24T04:35:30;99901.72;;;9.83;100.00
49723;BME280;43484;43.608;1.458;2022-11-24T04:38:01;99904.41;;;9.88;100.00
49723;BME280;43484;43.608;1.458;2022-11-24T04:40:27;99915.09;;;10.01;100.00
49723;BME280;43484;43.608;1.458;2022-11-24T04:42:54;99913.00;;;9.90;100.00
49723;BME280;43484;43.608;1.458;2022-11-24T04:45:22;99907.94;;;9.91;100.00
49723;BME280;43484;43.608;1.458;2022-11-24T04:47:48;99910.31;;;9.85;100.00
49723;BME280;43484;43.608;1.458;2022-11-24T04:50:15;99904.03;;;9.76;100.00
49723;BME280;43484;43.608;1.458;2022-11-24T04:52:42;99893.38;;;9.64;100.00
49723;BME280;43484;43.608;1.458;2022-11-24T04:55:09;99891.78;;;9.67;100.00
49723;BME280;43484;43.608;1.458;2022-11-24T04:57:36;99896.97;;;9.69;100.00
49723;BME280;43484;43.608;1.458;2022-11-24T05:00:03;99892.41;;;9.60;100.00
49723;BME280;43484;43.608;1.458;2022-11-24T05:02:29;99891.44;;;9.57;100.00
49723;BME280;43484;43.608;1.458;2022-11-24T05:04:56;99877.50;;;9.49;100.00
49723;BME280;43484;43.608;1.458;2022-11-24T05:07:22;99877.38;;;9.44;100.00
49723;BME280;43484;43.608;1.458;2022-11-24T05:09:49;99871.47;;;9.47;100.00
49723;BME280;43484;43.608;1.458;2022-11-24T05:12:34;99879.84;;;9.43;100.00
49723;BME280;43484;43.608;1.458;2022-11-24T05:15:02;99882.59;;;9.47;100.00
49723;BME280;43484;43.608;1.458;2022-11-24T05:17:31;99876.78;;;9.53;100.00
49723;BME280;43484;43.608;1.458;2022-11-24T05:19:58;99884.25;;;9.47;100.00
49723;BME280;43484;43.608;1.458;2022-11-24T05:22:27;99896.00;;;9.42;100.00
49723;BME280;43484;43.608;1.458;2022-11-24T05:24:54;99887.06;;;9.29;100.00
49723;BME280;43484;43.608;1.458;2022-11-24T05:27:20;99886.09;;;9.26;100.00
49723;BME280;43484;43.608;1.458;2022-11-24T05:29:47;99880.84;;;9.23;100.00
49723;BME280;43484;43.608;1.458;2022-11-24T05:32:14;99892.00;;;9.25;100.00
49723;BME280;43484;43.608;1.458;2022-11-24T05:34:40;99890.38;;;9.27;100.00
49723;BME280;43484;43.608;1.458;2022-11-24T05:37:07;99879.81;;;9.18;100.00
49723;BME280;43484;43.608;1.458;2022-11-24T05:39:34;99869.88;;;9.25;100.00
49723;BME280;43484;43.608;1.458;2022-11-24T05:42:02;99860.06;;;9.37;100.00
49723;BME280;43484;43.608;1.458;2022-11-24T05:44:55;99865.94;;;9.35;100.00
49723;BME280;43484;43.608;1.458;2022-11-24T05:47:23;99855.63;;;9.32;100.00
49723;BME280;43484;43.608;1.458;2022-11-24T05:49:49;99863.72;;;9.20;100.00
49723;BME280;43484;43.608;1.458;2022-11-24T05:52:17;99857.78;;;9.21;100.00
49723;BME280;43484;43.608;1.458;2022-11-24T05:54:43;99858.97;;;9.06;100.00
49723;BME280;43484;43.608;1.458;2022-11-24T05:57:10;99848.75;;;9.06;100.00
49723;BME280;43484;43.608;1.458;2022-11-24T05:59:38;99848.78;;;9.07;100.00
49723;BME280;43484;43.608;1.458;2022-11-24T06:02:04;99860.44;;;8.99;100.00
49723;BME280;43484;43.608;1.458;2022-11-24T06:04:31;99855.19;;;8.96;100.00
49723;BME280;43484;43.608;1.458;2022-11-24T06:06:59;99866.88;;;8.89;100.00
49723;BME280;43484;43.608;1.458;2022-11-24T06:09:25;99847.31;;;8.90;100.00
49723;BME280;43484;43.608;1.458;2022-11-24T06:11:52;99858.41;;;8.91;100.00
49723;BME280;43484;43.608;1.458;2022-11-24T06:14:19;99864.22;;;8.86;100.00
49723;BME280;43484;43.608;1.458;2022-11-24T06:16:45;99871.31;;;8.71;100.00
49723;BME280;43484;43.608;1.458;2022-11-24T06:19:12;99856.69;;;8.67;100.00
49723;BME280;43484;43.608;1.458;2022-11-24T06:21:39;99848.13;;;8.65;100.00
49723;BME280;43484;43.608;1.458;2022-11-24T06:24:05;99836.19;;;8.66;100.00
49723;BME280;43484;43.608;1.458;2022-11-24T06:26:32;99829.53;;;8.69;100.00
49723;BME280;43484;43.608;1.458;2022-11-24T06:28:59;99827.50;;;8.61;100.00
49723;BME280;43484;43.608;1.458;2022-11-24T06:31:25;99826.59;;;8.59;100.00
49723;BME280;43484;43.608;1.458;2022-11-24T06:33:52;99833.38;;;8.58;100.00
49723;BME280;43484;43.608;1.458;2022-11-24T06:36:19;99835.53;;;8.48;100.00
49723;BME280;43484;43.608;1.458;2022-11-24T06:38:45;99833.13;;;8.52;100.00
49723;BME280;43484;43.608;1.458;2022-11-24T06:41:14;99826.09;;;8.45;100.00
49723;BME280;43484;43.608;1.458;2022-11-24T06:43:40;99805.72;;;8.47;100.00
49723;BME280;43484;43.608;1.458;2022-11-24T06:46:07;99802.34;;;8.48;100.00
49723;BME280;43484;43.608;1.458;2022-11-24T06:48:34;99802.34;;;8.48;100.00
49723;BME280;43484;43.608;1.458;2022-11-24T06:51:03;99797.53;;;8.55;100.00
49723;BME280;43484;43.608;1.458;2022-11-24T06:53:34;99797.53;;;8.55;100.00
49723;BME280;43484;43.608;1.458;2022-11-24T06:56:05;99795.63;;;8.50;100.00
49723;BME280;43484;43.608;1.458;2022-11-24T06:58:43;99792.91;;;8.45;100.00
49723;BME280;43484;43.608;1.458;2022-11-24T07:01:16;99789.72;;;8.52;100.00
49723;BME280;43484;43.608;1.458;2022-11-24T07:03:44;99792.47;;;8.57;100.00
49723;BME280;43484;43.608;1.458;2022-11-24T07:06:10;99800.94;;;8.56;100.00
49723;BME280;43484;43.608;1.458;2022-11-24T07:08:37;99792.22;;;8.51;100.00
49723;BME280;43484;43.608;1.458;2022-11-24T07:11:05;99802.44;;;8.51;100.00
49723;BME280;43484;43.608;1.458;2022-11-24T07:13:32;99793.22;;;8.54;100.00
49723;BME280;43484;43.608;1.458;2022-11-24T07:15:59;99780.84;;;8.65;100.00
49723;BME280;43484;43.608;1.458;2022-11-24T07:18:26;99780.84;;;8.65;100.00
49723;BME280;43484;43.608;1.458;2022-11-24T07:20:52;99772.31;;;8.64;100.00
49723;BME280;43484;43.608;1.458;2022-11-24T07:23:19;99783.50;;;8.68;100.00
49723;BME280;43484;43.608;1.458;2022-11-24T07:25:45;99787.25;;;8.77;100.00
49723;BME280;43484;43.608;1.458;2022-11-24T07:28:12;99774.97;;;8.91;100.00
49723;BME280;43484;43.608;1.458;2022-11-24T07:30:38;99768.22;;;8.93;100.00
49723;BME280;43484;43.608;1.458;2022-11-24T07:33:05;99781.31;;;9.02;100.00
49723;BME280;43484;43.608;1.458;2022-11-24T07:35:32;99805.75;;;8.94;100.00
49723;BME280;43484;43.608;1.458;2022-11-24T07:37:58;99815.19;;;8.97;100.00
49723;BME280;43484;43.608;1.458;2022-11-24T07:40:25;99813.56;;;8.99;100.00
49723;BME280;43484;43.608;1.458;2022-11-24T07:42:53;99819.69;;;9.04;100.00
49723;BME280;43484;43.608;1.458;2022-11-24T07:45:19;99832.63;;;9.08;100.00
49723;BME280;43484;43.608;1.458;2022-11-24T07:47:46;99845.84;;;8.97;100.00
49723;BME280;43484;43.608;1.458;2022-11-24T07:50:13;99839.22;;;9.02;100.00
49723;BME280;43484;43.608;1.458;2022-11-24T07:52:39;99823.38;;;9.12;100.00
49723;BME280;43484;43.608;1.458;2022-11-24T07:55:07;99816.75;;;9.17;100.00
49723;BME280;43484;43.608;1.458;2022-11-24T07:57:33;99824.28;;;8.88;100.00
49723;BME280;43484;43.608;1.458;2022-11-24T08:00:01;99821.16;;;8.73;100.00
49723;BME280;43484;43.608;1.458;2022-11-24T08:02:27;99809.44;;;9.02;100.00
49723;BME280;43484;43.608;1.458;2022-11-24T08:04:54;99808.09;;;9.13;100.00
49723;BME280;43484;43.608;1.458;2022-11-24T08:07:20;99803.97;;;9.17;100.00
49723;BME280;43484;43.608;1.458;2022-11-24T08:09:47;99808.19;;;9.16;100.00
49723;BME280;43484;43.608;1.458;2022-11-24T08:12:15;99831.53;;;9.02;100.00
49723;BME280;43484;43.608;1.458;2022-11-24T08:14:49;99842.47;;;8.98;100.00
49723;BME280;43484;43.608;1.458;2022-11-24T08:17:17;99846.81;;;9.24;100.00
49723;BME280;43484;43.608;1.458;2022-11-24T08:19:43;99848.91;;;9.35;100.00
49723;BME280;43484;43.608;1.458;2022-11-24T08:22:10;99862.72;;;9.40;100.00
49723;BME280;43484;43.608;1.458;2022-11-24T08:24:37;99877.66;;;9.53;100.00
49723;BME280;43484;43.608;1.458;2022-11-24T08:27:04;99891.91;;;9.70;100.00
49723;BME280;43484;43.608;1.458;2022-11-24T08:29:30;99896.34;;;9.76;100.00
49723;BME280;43484;43.608;1.458;2022-11-24T08:31:57;99905.69;;;9.50;100.00
49723;BME280;43484;43.608;1.458;2022-11-24T08:34:24;99911.00;;;9.56;100.00
49723;BME280;43484;43.608;1.458;2022-11-24T08:36:53;99909.28;;;9.55;100.00
49723;BME280;43484;43.608;1.458;2022-11-24T08:39:20;99903.28;;;9.55;100.00
49723;BME280;43484;43.608;1.458;2022-11-24T08:41:46;99919.84;;;9.41;100.00
49723;BME280;43484;43.608;1.458;2022-11-24T08:44:13;99919.59;;;9.58;100.00
49723;BME280;43484;43.608;1.458;2022-11-24T08:46:41;99899.28;;;9.63;100.00
49723;BME280;43484;43.608;1.458;2022-11-24T08:49:08;99897.09;;;9.73;100.00
49723;BME280;43484;43.608;1.458;2022-11-24T08:51:35;99904.41;;;9.88;100.00
49723;BME280;43484;43.608;1.458;2022-11-24T08:54:02;99908.16;;;9.97;100.00
49723;BME280;43484;43.608;1.458;2022-11-24T08:56:30;99916.63;;;9.96;100.00
49723;BME280;43484;43.608;1.458;2022-11-24T08:58:58;99918.59;;;10.03;100.00
49723;BME280;43484;43.608;1.458;2022-11-24T09:01:26;99923.47;;;9.71;100.00
49723;BME280;43484;43.608;1.458;2022-11-24T09:03:53;99919.75;;;9.88;100.00
49723;BME280;43484;43.608;1.458;2022-11-24T09:06:23;99917.84;;;10.06;100.00
49723;BME280;43484;43.608;1.458;2022-11-24T09:08:52;99903.72;;;10.17;100.00
49723;BME280;43484;43.608;1.458;2022-11-24T09:11:19;99910.78;;;10.24;100.00
49723;BME280;43484;43.608;1.458;2022-11-24T09:13:46;99901.59;;;10.31;100.00
49723;BME280;43484;43.608;1.458;2022-11-24T09:16:18;99899.31;;;10.40;100.00
49723;BME280;43484;43.608;1.458;2022-11-24T09:18:46;99902.94;;;10.46;100.00
49723;BME280;43484;43.608;1.458;2022-11-24T09:21:15;99900.28;;;10.43;100.00
49723;BME280;43484;43.608;1.458;2022-11-24T09:23:44;99902.38;;;10.28;100.00
49723;BME280;43484;43.608;1.458;2022-11-24T09:26:13;99906.41;;;10.48;100.00
49723;BME280;43484;43.608;1.458;2022-11-24T09:28:41;99906.78;;;10.60;100.00
49723;BME280;43484;43.608;1.458;2022-11-24T09:31:10;99930.84;;;10.65;100.00
49723;BME280;43484;43.608;1.458;2022-11-24T09:33:39;99934.94;;;10.60;100.00
49723;BME280;43484;43.608;1.458;2022-11-24T09:36:07;99930.28;;;10.47;100.00
49723;BME280;43484;43.608;1.458;2022-11-24T09:38:34;99934.94;;;10.60;100.00
49723;BME280;43484;43.608;1.458;2022-11-24T09:50:01;99946.06;;;10.61;100.00
49723;BME280;43484;43.608;1.458;2022-11-24T09:52:39;99947.84;;;10.90;100.00
49723;BME280;43484;43.608;1.458;2022-11-24T09:55:28;99946.13;;;10.90;100.00
49723;BME280;43484;43.608;1.458;2022-11-24T09:58:08;99922.75;;;10.80;100.00
49723;BME280;43484;43.608;1.458;2022-11-24T10:00:36;99924.84;;;10.93;100.00
49723;BME280;43484;43.608;1.458;2022-11-24T10:03:03;99917.53;;;11.05;100.00
49723;BME280;43484;43.608;1.458;2022-11-24T10:05:33;99927.81;;;11.06;100.00
49723;BME280;43484;43.608;1.458;2022-11-24T10:10:51;99922.03;;;11.13;100.00
49723;BME280;43484;43.608;1.458;2022-11-24T10:16:36;99916.59;;;11.32;100.00
49723;BME280;43484;43.608;1.458;2022-11-24T10:25:06;99902.00;;;11.63;100.00
49723;BME280;43484;43.608;1.458;2022-11-24T10:27:46;99887.28;;;11.56;100.00
49723;BME280;43484;43.608;1.458;2022-11-24T10:30:20;99882.50;;;11.68;100.00
49723;BME280;43484;43.608;1.458;2022-11-24T10:32:51;99872.03;;;11.60;100.00
49723;BME280;43484;43.608;1.458;2022-11-24T10:35:25;99858.59;;;11.69;100.00
49723;BME280;43484;43.608;1.458;2022-11-24T10:38:06;99859.09;;;11.57;100.00
49723;BME280;43484;43.608;1.458;2022-11-24T10:40:40;99853.97;;;11.57;100.00
49723;BME280;43484;43.608;1.458;2022-11-24T10:43:26;99851.88;;;11.74;100.00
49723;BME280;43484;43.608;1.458;2022-11-24T10:45:58;99841.69;;;11.77;100.00
49723;BME280;43484;43.608;1.458;2022-11-24T10:48:27;99830.56;;;11.78;100.00
49723;BME280;43484;43.608;1.458;2022-11-24T10:54:00;99825.75;;;11.90;100.00
49723;BME280;43484;43.608;1.458;2022-11-24T10:56:38;99830.78;;;12.22;100.00
49723;BME280;43484;43.608;1.458;2022-11-24T11:01:51;99817.41;;;12.35;100.00
49723;BME280;43484;43.608;1.458;2022-11-24T11:04:21;99807.22;;;12.40;100.00
49723;BME280;43484;43.608;1.458;2022-11-24T11:06:50;99811.59;;;12.44;100.00
49723;BME280;43484;43.608;1.458;2022-11-24T11:09:21;99814.53;;;12.62;100.00
49723;BME280;43484;43.608;1.458;2022-11-24T11:11:48;99819.06;;;12.74;100.00
49723;BME280;43484;43.608;1.458;2022-11-24T11:14:32;99819.06;;;12.74;100.00
49723;BME280;43484;43.608;1.458;2022-11-24T11:16:59;99803.69;;;12.77;100.00
49723;BME280;43484;43.608;1.458;2022-11-24T11:19:36;99801.06;;;12.74;100.00
49723;BME280;43484;43.608;1.458;2022-11-24T11:24:47;99788.25;;;12.75;100.00
49723;BME280;43484;43.608;1.458;2022-11-24T11:27:26;99780.56;;;12.77;100.00
49723;BME280;43484;43.608;1.458;2022-11-24T11:29:53;99781.31;;;12.71;100.00
49723;BME280;43484;43.608;1.458;2022-11-24T11:32:51;99767.50;;;12.66;100.00
49723;BME280;43484;43.608;1.458;2022-11-24T11:35:38;99767.59;;;12.71;100.00
49723;BME280;43484;43.608;1.458;2022-11-24T11:38:05;99765.13;;;12.75;100.00
49723;BME280;43484;43.608;1.458;2022-11-24T11:40:33;99765.13;;;12.75;100.00
49723;BME280;43484;43.608;1.458;2022-11-24T11:43:21;99759.13;;;12.76;100.00
49723;BME280;43484;43.608;1.458;2022-11-24T11:46:03;99749.72;;;12.77;100.00
49723;BME280;43484;43.608;1.458;2022-11-24T11:48:31;99751.56;;;12.82;100.00
49723;BME280;43484;43.608;1.458;2022-11-24T11:56:47;99733.56;;;12.82;100.00
49723;BME280;43484;43.608;1.458;2022-11-24T12:05:03;99710.84;;;13.05;100.00
49723;BME280;43484;43.608;1.458;2022-11-24T12:15:53;99674.81;;;13.03;100.00
49723;BME280;43484;43.608;1.458;2022-11-24T12:21:50;99686.06;;;13.08;100.00
49723;BME280;43484;43.608;1.458;2022-11-24T12:24:29;99694.66;;;13.10;100.00
49723;BME280;43484;43.608;1.458;2022-11-24T12:27:07;99690.38;;;13.09;100.00
49723;BME280;43484;43.608;1.458;2022-11-24T12:34:58;99684.41;;;13.13;100.00
49723;BME280;43484;43.608;1.458;2022-11-24T12:37:45;99679.00;;;12.98;100.00
49723;BME280;43484;43.608;1.458;2022-11-24T12:43:36;99676.56;;;13.03;100.00
49723;BME280;43484;43.608;1.458;2022-11-24T12:46:18;99671.59;;;13.16;100.00
49723;BME280;43484;43.608;1.458;2022-11-24T12:49:15;99669.25;;;13.28;100.00
49723;BME280;43484;43.608;1.458;2022-11-24T12:51:53;99662.66;;;13.45;100.00
49723;BME280;43484;43.608;1.458;2022-11-24T12:54:24;99645.75;;;13.62;100.00
49723;BME280;43484;43.608;1.458;2022-11-24T12:56:59;99632.16;;;13.72;100.00
49723;BME280;43484;43.608;1.458;2022-11-24T13:05:44;99598.75;;;13.78;100.00
49723;BME280;43484;43.608;1.458;2022-11-24T13:08:13;99598.75;;;13.78;100.00
49723;BME280;43484;43.608;1.458;2022-11-24T13:10:40;99595.44;;;13.87;100.00
49723;BME280;43484;43.608;1.458;2022-11-24T13:13:27;99607.50;;;13.88;100.00
49723;BME280;43484;43.608;1.458;2022-11-24T13:16:07;99622.78;;;13.77;100.00
49723;BME280;43484;43.608;1.458;2022-11-24T13:19:05;99627.03;;;13.75;100.00
49723;BME280;43484;43.608;1.458;2022-11-24T13:24:21;99623.72;;;13.82;100.00
49723;BME280;43484;43.608;1.458;2022-11-24T13:29:40;99617.88;;;13.97;100.00
49723;BME280;43484;43.608;1.458;2022-11-24T13:42:30;99612.91;;;14.12;100.00
49723;BME280;43484;43.608;1.458;2022-11-24T13:53:41;99657.00;;;14.33;100.00
49723;BME280;43484;43.608;1.458;2022-11-24T13:58:46;99678.44;;;14.32;100.00
49723;BME280;43484;43.608;1.458;2022-11-24T14:01:19;99669.03;;;14.34;100.00
49723;BME280;43484;43.608;1.458;2022-11-24T14:07:04;99665.63;;;14.37;100.00
49723;BME280;43484;43.608;1.458;2022-11-24T14:12:18;99676.94;;;14.49;100.00
49723;BME280;43484;43.608;1.458;2022-11-24T14:14:47;99676.16;;;14.53;100.00
49723;BME280;43484;43.608;1.458;2022-11-24T14:17:22;99677.00;;;14.57;100.00
49723;BME280;43484;43.608;1.458;2022-11-24T14:19:53;99675.22;;;14.48;100.00
49723;BME280;43484;43.608;1.458;2022-11-24T14:22:46;99669.22;;;14.49;100.00
49723;BME280;43484;43.608;1.458;2022-11-24T14:27:46;99639.81;;;14.34;100.00
49723;BME280;43484;43.608;1.458;2022-11-24T14:32:39;99628.84;;;14.51;100.00
49723;BME280;43484;43.608;1.458;2022-11-24T14:37:50;99633.88;;;14.38;100.00
49723;BME280;43484;43.608;1.458;2022-11-24T14:43:16;99639.84;;;14.37;100.00
49723;BME280;43484;43.608;1.458;2022-11-24T14:45:59;99639.09;;;14.45;100.00
49723;BME280;43484;43.608;1.458;2022-11-24T14:48:37;99645.75;;;14.27;100.00
49723;BME280;43484;43.608;1.458;2022-11-24T14:51:11;99655.22;;;14.28;100.00
49723;BME280;43484;43.608;1.458;2022-11-24T14:53:41;99663.84;;;14.30;100.00
49723;BME280;43484;43.608;1.458;2022-11-24T14:58:56;99668.81;;;14.19;100.00
49723;BME280;43484;43.608;1.458;2022-11-24T15:04:16;99667.03;;;14.15;100.00
49723;BME280;43484;43.608;1.458;2022-11-24T15:07:14;99677.31;;;14.12;100.00
49723;BME280;43484;43.608;1.458;2022-11-24T15:12:40;99677.22;;;14.03;100.00